Emelle, Alabama
Current Conditions -  °F | °C
As of 11:56 PM on Saturday 22 Nov 2014 (Local Time) from KNMM Reporting Station
Overcast Overcast  
Wind Chill: 58°   Ceiling: 800
Heat Index: 58°   Visibility: 8mi
Dew Point: 56°   Wind: 12mph
Humidity: 93%   Direction: 110°ESE
Pressure: 29.99"   Gusts: NA
Location:  32.73°N, 88.31°W
Report Text: KNMM 230556Z AUTO 11010KT 8SM OVC008 14/13 A2999 RMK AO2 CIG 007V012 SLP163 60000 T01440133 10172 20144 402110044 58027 $
Loading
Personal Weather Stations






























Interactive Weather Map New forecast layout! Learn more

10-Day Weather Forecast

Advertisements
Track Severe Weather on mobile